Time,TemperatureF,DewpointF,PressureIn,WindDirection,WindDirectionDegrees,WindSpeedMPH,WindSpeedGustMPH,Humidity,HourlyPrecipIn,Conditions,Clouds,dailyrainin,SoftwareType,DateUTC
2013-08-29 00:02:00,50.5,44.6,29.91,SSE,157,10.0,13.0,80,0.00,,BKN001,0.00,VWS V14.00,2013-08-29 06:02:00,
2013-08-29 00:07:00,49.7,44.1,29.91,South,174,11.0,13.0,81,0.00,,BKN001,0.00,VWS V14.00,2013-08-29 06:07:00,
2013-08-29 00:12:00,49.7,44.8,29.92,SSE,158,6.0,13.0,83,0.00,,BKN001,0.00,VWS V14.00,2013-08-29 06:12:00,
2013-08-29 00:17:00,51.6,45.6,29.92,SE,139,10.0,14.0,80,0.00,,BKN001,0.00,VWS V14.00,2013-08-29 06:17:00,
2013-08-29 00:22:00,52.4,45.8,29.92,SSE,157,9.0,14.0,78,0.00,,BKN001,0.00,VWS V14.00,2013-08-29 06:22:00,
2013-08-29 00:27:00,51.7,45.1,29.92,SSE,152,6.0,14.0,78,0.00,,BKN001,0.00,VWS V14.00,2013-08-29 06:27:00,
2013-08-29 00:32:00,50.7,44.4,29.92,SSE,166,7.0,11.0,79,0.00,,BKN001,0.00,VWS V14.00,2013-08-29 06:32:00,
2013-08-29 00:37:00,50.2,44.3,29.92,SSE,163,4.0,11.0,80,0.00,,BKN001,0.00,VWS V14.00,2013-08-29 06:37:00,
2013-08-29 00:42:00,50.3,44.7,29.92,SE,146,5.0,11.0,81,0.00,,BKN001,0.00,VWS V14.00,2013-08-29 06:42:00,
2013-08-29 00:47:00,49.7,44.1,29.92,SE,129,6.0,11.0,81,0.00,,BKN001,0.00,VWS V14.00,2013-08-29 06:47:00,
2013-08-29 00:52:00,50.2,44.6,29.92,SSW,201,6.0,12.0,81,0.00,,BKN001,0.00,VWS V14.00,2013-08-29 06:52:00,
2013-08-29 00:57:00,49.0,43.8,29.92,SW,214,9.0,12.0,82,0.00,,BKN001,0.00,VWS V14.00,2013-08-29 06:57:00,
2013-08-29 01:02:00,48.5,43.9,29.93,SSW,212,8.0,12.0,84,0.00,,BKN001,0.00,VWS V14.00,2013-08-29 07:02:00,
2013-08-29 01:07:00,48.1,43.8,29.93,SSW,207,7.0,12.0,85,0.00,,BKN001,0.00,VWS V14.00,2013-08-29 07:07:00,
2013-08-29 01:12:00,48.0,43.7,29.93,SW,215,9.0,12.0,85,0.00,,BKN001,0.00,VWS V14.00,2013-08-29 07:12:00,
2013-08-29 01:17:00,47.9,43.9,29.93,SSW,201,5.0,12.0,86,0.00,,BKN001,0.00,VWS V14.00,2013-08-29 07:17:00,
2013-08-29 01:22:00,48.5,44.5,29.93,South,190,7.0,12.0,86,0.00,,BKN001,0.00,VWS V14.00,2013-08-29 07:22:00,
2013-08-29 01:27:00,48.8,44.2,29.93,SSW,200,6.0,12.0,84,0.00,,BKN001,0.00,VWS V14.00,2013-08-29 07:27:00,
2013-08-29 01:32:00,47.9,43.3,29.93,SSE,168,9.0,11.0,84,0.00,,BKN001,0.00,VWS V14.00,2013-08-29 07:32:00,
2013-08-29 01:37:00,47.6,43.6,29.93,South,188,9.0,11.0,86,0.00,,BKN001,0.00,VWS V14.00,2013-08-29 07:37:00,
2013-08-29 01:42:00,47.8,43.5,29.93,SSW,212,6.0,11.0,85,0.00,,BKN001,0.00,VWS V14.00,2013-08-29 07:42:00,
2013-08-29 01:47:00,47.9,43.9,29.93,SSW,198,8.0,11.0,86,0.00,,BKN001,0.00,VWS V14.00,2013-08-29 07:47:00,
2013-08-29 01:52:00,48.0,44.0,29.93,South,183,5.0,11.0,86,0.00,,BKN001,0.00,VWS V14.00,2013-08-29 07:52:00,
2013-08-29 01:57:00,47.9,43.9,29.93,South,169,9.0,11.0,86,0.00,,BKN001,0.00,VWS V14.00,2013-08-29 07:57:00,
2013-08-29 02:02:00,48.6,44.6,29.93,South,184,7.0,9.0,86,0.00,,BKN001,0.00,VWS V14.00,2013-08-29 08:02:00,
2013-08-29 02:07:00,49.2,44.9,29.93,SSE,164,7.0,11.0,85,0.00,,BKN001,0.00,VWS V14.00,2013-08-29 08:07:00,
2013-08-29 02:12:00,49.1,44.5,29.94,SE,143,7.0,13.0,84,0.00,,BKN001,0.00,VWS V14.00,2013-08-29 08:12:00,
2013-08-29 02:17:00,48.6,44.0,29.94,SE,127,8.0,13.0,84,0.00,,BKN001,0.00,VWS V14.00,2013-08-29 08:17:00,
2013-08-29 02:22:00,47.9,43.6,29.93,SE,131,8.0,13.0,85,0.00,,BKN001,0.00,VWS V14.00,2013-08-29 08:22:00,
2013-08-29 02:27:00,48.3,44.0,29.93,ESE,113,3.0,13.0,85,0.00,,BKN001,0.00,VWS V14.00,2013-08-29 08:27:00,
2013-08-29 02:32:00,48.2,43.9,29.93,South,178,3.0,5.0,85,0.00,,BKN001,0.00,VWS V14.00,2013-08-29 08:32:00,
2013-08-29 02:37:00,47.7,43.4,29.94,SSE,151,5.0,5.0,85,0.00,,BKN001,0.00,VWS V14.00,2013-08-29 08:37:00,
2013-08-29 02:42:00,47.2,43.2,29.94,SSE,162,3.0,9.0,86,0.00,,BKN001,0.00,VWS V14.00,2013-08-29 08:42:00,
2013-08-29 02:47:00,47.2,43.2,29.94,SE,135,3.0,9.0,86,0.00,,BKN001,0.00,VWS V14.00,2013-08-29 08:47:00,
2013-08-29 02:52:00,47.3,43.3,29.94,SE,133,0.0,9.0,86,0.00,,BKN001,0.00,VWS V14.00,2013-08-29 08:52:00,
2013-08-29 02:57:00,47.3,43.3,29.94,South,174,2.0,9.0,86,0.00,,BKN001,0.00,VWS V14.00,2013-08-29 08:57:00,
2013-08-29 03:02:00,46.8,42.5,29.94,SSE,148,1.0,5.0,85,0.00,,BKN001,0.00,VWS V14.00,2013-08-29 09:02:00,
2013-08-29 03:07:00,46.5,42.5,29.95,South,177,5.0,6.0,86,0.00,,BKN001,0.00,VWS V14.00,2013-08-29 09:07:00,
2013-08-29 03:12:00,46.4,42.8,29.95,South,174,5.0,7.0,87,0.00,,BKN001,0.00,VWS V14.00,2013-08-29 09:12:00,
2013-08-29 03:17:00,46.3,42.7,29.95,South,181,3.0,7.0,87,0.00,,BKN001,0.00,VWS V14.00,2013-08-29 09:17:00,
2013-08-29 03:22:00,46.0,42.7,29.95,South,181,0.0,7.0,88,0.00,,BKN001,0.00,VWS V14.00,2013-08-29 09:22:00,
2013-08-29 03:27:00,45.6,42.3,29.95,South,181,0.0,7.0,88,0.00,,BKN001,0.00,VWS V14.00,2013-08-29 09:27:00,
2013-08-29 03:32:00,45.6,42.5,29.95,South,176,0.0,2.0,89,0.00,,BKN001,0.00,VWS V14.00,2013-08-29 09:32:00,
2013-08-29 03:37:00,45.6,42.5,29.95,South,177,4.0,4.0,89,0.00,,BKN001,0.00,VWS V14.00,2013-08-29 09:37:00,
2013-08-29 03:42:00,45.9,42.8,29.95,SSE,160,4.0,4.0,89,0.00,,BKN001,0.00,VWS V14.00,2013-08-29 09:42:00,
2013-08-29 03:47:00,46.0,43.0,29.95,SSE,150,3.0,5.0,89,0.00,,BKN001,0.00,VWS V14.00,2013-08-29 09:47:00,
2013-08-29 03:52:00,45.8,42.8,29.95,South,170,3.0,6.0,89,0.00,,BKN001,0.00,VWS V14.00,2013-08-29 09:52:00,
2013-08-29 03:57:00,45.4,42.3,29.95,SSE,153,5.0,6.0,89,0.00,,BKN001,0.00,VWS V14.00,2013-08-29 09:57:00,
2013-08-29 04:02:00,45.4,42.6,29.95,SSE,153,4.0,4.0,90,0.00,,BKN001,0.00,VWS V14.00,2013-08-29 10:02:00,
2013-08-29 04:07:00,45.0,42.2,29.95,SSE,166,5.0,5.0,90,0.00,,BKN001,0.00,VWS V14.00,2013-08-29 10:07:00,
2013-08-29 04:12:00,44.6,41.8,29.95,SW,222,2.0,5.0,90,0.00,,BKN001,0.00,VWS V14.00,2013-08-29 10:12:00,
2013-08-29 04:17:00,44.3,41.8,29.95,SSE,152,6.0,8.0,91,0.00,,BKN001,0.00,VWS V14.00,2013-08-29 10:17:00,
2013-08-29 04:22:00,44.7,42.2,29.96,SSE,152,9.0,9.0,91,0.00,,BKN001,0.00,VWS V14.00,2013-08-29 10:22:00,
2013-08-29 04:27:00,44.7,42.2,29.96,SSE,150,6.0,9.0,91,0.00,,BKN001,0.00,VWS V14.00,2013-08-29 10:27:00,
2013-08-29 04:32:00,44.9,42.2,29.96,SSE,152,7.0,10.0,90,0.00,,BKN001,0.00,VWS V14.00,2013-08-29 10:32:00,
2013-08-29 04:37:00,44.3,41.6,29.96,South,177,6.0,10.0,90,0.00,,BKN001,0.00,VWS V14.00,2013-08-29 10:37:00,
2013-08-29 04:42:00,43.7,41.0,29.96,SSE,167,6.0,10.0,90,0.00,,BKN001,0.00,VWS V14.00,2013-08-29 10:42:00,
2013-08-29 04:47:00,43.7,41.2,29.96,SW,230,6.0,10.0,91,0.00,,BKN001,0.00,VWS V14.00,2013-08-29 10:47:00,
2013-08-29 04:52:00,43.6,41.2,29.97,SW,231,0.0,10.0,91,0.00,,BKN001,0.00,VWS V14.00,2013-08-29 10:52:00,
2013-08-29 04:57:00,43.4,41.0,29.97,SSW,206,2.0,10.0,91,0.00,,BKN001,0.00,VWS V14.00,2013-08-29 10:57:00,
2013-08-29 05:02:00,43.2,41.0,29.97,SSW,208,2.0,5.0,92,0.00,,BKN001,0.00,VWS V14.00,2013-08-29 11:02:00,
2013-08-29 05:07:00,43.2,41.0,29.97,SSW,210,4.0,6.0,92,0.00,,BKN001,0.00,VWS V14.00,2013-08-29 11:07:00,
2013-08-29 05:12:00,43.6,41.4,29.97,SSW,210,4.0,6.0,92,0.00,,BKN001,0.00,VWS V14.00,2013-08-29 11:12:00,
2013-08-29 05:17:00,43.4,41.2,29.97,South,187,3.0,6.0,92,0.00,,BKN001,0.00,VWS V14.00,2013-08-29 11:17:00,
2013-08-29 05:22:00,43.3,41.1,29.97,SSE,167,3.0,6.0,92,0.00,,BKN001,0.00,VWS V14.00,2013-08-29 11:22:00,
2013-08-29 05:27:00,43.2,41.0,29.97,SSE,165,0.0,6.0,92,0.00,,BKN001,0.00,VWS V14.00,2013-08-29 11:27:00,
2013-08-29 05:32:00,43.2,41.0,29.97,SSE,165,0.0,2.0,92,0.00,,BKN001,0.00,VWS V14.00,2013-08-29 11:32:00,
2013-08-29 05:37:00,43.5,41.3,29.97,SSE,165,0.0,3.0,92,0.00,,BKN001,0.00,VWS V14.00,2013-08-29 11:37:00,
2013-08-29 05:42:00,43.7,41.5,29.97,SSE,165,0.0,3.0,92,0.00,,BKN001,0.00,VWS V14.00,2013-08-29 11:42:00,
2013-08-29 05:47:00,43.8,41.6,29.97,SSE,165,0.0,3.0,92,0.00,,BKN001,0.00,VWS V14.00,2013-08-29 11:47:00,
2013-08-29 05:52:00,43.4,41.0,29.98,SSE,165,0.0,3.0,91,0.00,,BKN001,0.00,VWS V14.00,2013-08-29 11:52:00,
2013-08-29 05:57:00,43.3,41.1,29.97,SSE,165,2.0,3.0,92,0.00,,BKN001,0.00,VWS V14.00,2013-08-29 11:57:00,
2013-08-29 06:02:00,42.9,41.0,29.97,SSE,166,3.0,3.0,93,0.00,,BKN001,0.00,VWS V14.00,2013-08-29 12:02:00,
2013-08-29 06:07:00,43.2,41.6,29.97,SW,226,1.0,3.0,94,0.00,,BKN001,0.00,VWS V14.00,2013-08-29 12:07:00,
2013-08-29 06:12:00,42.9,41.0,29.98,SSE,156,1.0,3.0,93,0.00,,BKN001,0.00,VWS V14.00,2013-08-29 12:12:00,
2013-08-29 06:17:00,42.6,40.7,29.98,SSE,153,1.0,3.0,93,0.00,,BKN001,0.00,VWS V14.00,2013-08-29 12:17:00,
2013-08-29 06:22:00,42.4,40.5,29.98,South,191,3.0,3.0,93,0.00,,BKN001,0.00,VWS V14.00,2013-08-29 12:22:00,
2013-08-29 06:27:00,42.3,40.7,29.98,SW,217,4.0,4.0,94,0.00,,BKN001,0.00,VWS V14.00,2013-08-29 12:27:00,
2013-08-29 06:32:00,42.4,40.8,29.98,SW,231,3.0,5.0,94,0.00,,BKN001,0.00,VWS V14.00,2013-08-29 12:32:00,
2013-08-29 06:37:00,42.4,41.1,29.99,WSW,248,1.0,5.0,95,0.00,,BKN001,0.00,VWS V14.00,2013-08-29 12:37:00,
2013-08-29 06:42:00,42.5,41.2,29.99,SW,229,3.0,7.0,95,0.00,,BKN001,0.00,VWS V14.00,2013-08-29 12:42:00,
2013-08-29 06:47:00,42.5,41.2,29.99,SW,222,1.0,7.0,95,0.00,,BKN001,0.00,VWS V14.00,2013-08-29 12:47:00,
2013-08-29 06:52:00,42.4,40.8,29.99,SE,138,2.0,7.0,94,0.00,,BKN001,0.00,VWS V14.00,2013-08-29 12:52:00,
2013-08-29 06:57:00,42.4,40.8,30.00,SE,128,5.0,7.0,94,0.00,,BKN001,0.00,VWS V14.00,2013-08-29 12:57:00,
2013-08-29 07:02:00,42.5,40.9,30.00,South,176,4.0,4.0,94,0.00,,BKN001,0.00,VWS V14.00,2013-08-29 13:02:00,
2013-08-29 07:07:00,42.5,40.9,30.00,SSE,153,2.0,4.0,94,0.00,,BKN001,0.00,VWS V14.00,2013-08-29 13:07:00,
2013-08-29 07:12:00,42.7,41.1,30.01,ESE,108,1.0,4.0,94,0.00,,BKN001,0.00,VWS V14.00,2013-08-29 13:12:00,
2013-08-29 07:17:00,43.2,41.6,30.01,SE,142,1.0,4.0,94,0.00,,BKN001,0.00,VWS V14.00,2013-08-29 13:17:00,
2013-08-29 07:22:00,43.4,41.8,30.01,SSE,165,1.0,4.0,94,0.00,,BKN001,0.00,VWS V14.00,2013-08-29 13:22:00,
2013-08-29 07:27:00,43.6,42.0,30.01,SW,231,0.0,4.0,94,0.00,,BKN001,0.00,VWS V14.00,2013-08-29 13:27:00,
2013-08-29 07:32:00,43.5,41.6,30.01,SW,231,0.0,0.0,93,0.00,,BKN001,0.00,VWS V14.00,2013-08-29 13:32:00,
2013-08-29 07:37:00,43.3,41.4,30.01,SW,232,0.0,0.0,93,0.00,,BKN001,0.00,VWS V14.00,2013-08-29 13:37:00,
2013-08-29 07:42:00,43.1,41.2,30.01,SW,232,0.0,0.0,93,0.00,,BKN001,0.00,VWS V14.00,2013-08-29 13:42:00,
2013-08-29 07:47:00,43.1,41.5,30.01,SW,232,0.0,0.0,94,0.00,,BKN001,0.00,VWS V14.00,2013-08-29 13:47:00,
2013-08-29 07:52:00,43.6,42.0,30.02,SW,232,0.0,0.0,94,0.00,,BKN001,0.00,VWS V14.00,2013-08-29 13:52:00,
2013-08-29 07:57:00,44.7,43.1,30.02,SSE,163,1.0,2.0,94,0.00,,BKN001,0.00,VWS V14.00,2013-08-29 13:57:00,
2013-08-29 08:02:00,45.6,43.4,30.02,SSW,195,2.0,3.0,92,0.00,,BKN001,0.00,VWS V14.00,2013-08-29 14:02:00,
2013-08-29 08:07:00,46.4,43.9,30.02,SW,228,1.0,3.0,91,0.00,,BKN001,0.00,VWS V14.00,2013-08-29 14:07:00,
2013-08-29 08:12:00,46.8,43.7,30.02,SW,222,2.0,3.0,89,0.00,,BKN001,0.00,VWS V14.00,2013-08-29 14:12:00,
2013-08-29 08:17:00,47.4,44.3,30.02,SW,225,1.0,3.0,89,0.00,,BKN001,0.00,VWS V14.00,2013-08-29 14:17:00,
2013-08-29 08:22:00,47.9,44.2,30.01,WSW,240,2.0,4.0,87,0.00,,BKN001,0.00,VWS V14.00,2013-08-29 14:22:00,
2013-08-29 08:27:00,48.5,44.8,30.01,SW,235,2.0,4.0,87,0.00,,BKN001,0.00,VWS V14.00,2013-08-29 14:27:00,
2013-08-29 08:32:00,49.5,45.8,30.01,SSE,155,4.0,4.0,87,0.00,,BKN001,0.00,VWS V14.00,2013-08-29 14:32:00,
2013-08-29 08:37:00,50.1,46.1,30.01,SSE,148,1.0,5.0,86,0.00,,BKN001,0.00,VWS V14.00,2013-08-29 14:37:00,
2013-08-29 08:42:00,50.5,45.8,30.00,SSW,198,5.0,7.0,84,0.00,,BKN001,0.00,VWS V14.00,2013-08-29 14:42:00,
2013-08-29 08:47:00,51.0,46.3,30.00,WSW,238,5.0,7.0,84,0.00,,BKN001,0.00,VWS V14.00,2013-08-29 14:47:00,
2013-08-29 08:52:00,51.3,47.0,30.00,SSW,207,4.0,7.0,85,0.00,,BKN001,0.00,VWS V14.00,2013-08-29 14:52:00,
2013-08-29 08:57:00,52.2,47.2,30.00,SSW,205,3.0,7.0,83,0.00,,BKN001,0.00,VWS V14.00,2013-08-29 14:57:00,
2013-08-29 09:02:00,52.7,47.0,30.00,SW,224,7.0,7.0,81,0.00,,BKN001,0.00,VWS V14.00,2013-08-29 15:02:00,
2013-08-29 09:07:00,53.2,47.5,30.00,SSW,207,5.0,9.0,81,0.00,,BKN001,0.00,VWS V14.00,2013-08-29 15:07:00,
2013-08-29 09:12:00,53.9,47.2,30.00,SW,219,8.0,9.0,78,0.00,,BKN001,0.00,VWS V14.00,2013-08-29 15:12:00,
2013-08-29 09:17:00,54.2,47.8,29.99,South,189,4.0,9.0,79,0.00,,BKN001,0.00,VWS V14.00,2013-08-29 15:17:00,
2013-08-29 09:22:00,54.9,47.8,29.99,SSW,210,6.0,9.0,77,0.00,,BKN001,0.00,VWS V14.00,2013-08-29 15:22:00,
2013-08-29 09:27:00,55.4,47.6,29.98,SW,224,5.0,9.0,75,0.00,,BKN001,0.00,VWS V14.00,2013-08-29 15:27:00,
2013-08-29 09:32:00,56.0,48.2,29.98,WSW,238,6.0,7.0,75,0.00,,BKN001,0.00,VWS V14.00,2013-08-29 15:32:00,
2013-08-29 09:37:00,56.6,48.8,29.98,SW,214,4.0,7.0,75,0.00,,BKN001,0.00,VWS V14.00,2013-08-29 15:37:00,
2013-08-29 09:42:00,57.4,48.8,29.98,SW,218,3.0,7.0,73,0.00,,BKN001,0.00,VWS V14.00,2013-08-29 15:42:00,
2013-08-29 09:47:00,58.0,48.3,29.97,SW,226,3.0,8.0,70,0.00,,BKN001,0.00,VWS V14.00,2013-08-29 15:47:00,
2013-08-29 09:52:00,58.4,47.9,29.97,WSW,248,5.0,8.0,68,0.00,,BKN001,0.00,VWS V14.00,2013-08-29 15:52:00,
2013-08-29 09:57:00,58.7,48.2,29.97,WSW,252,4.0,8.0,68,0.00,,BKN001,0.00,VWS V14.00,2013-08-29 15:57:00,
2013-08-29 10:02:00,59.0,48.1,29.97,WSW,248,2.0,6.0,67,0.00,,BKN001,0.00,VWS V14.00,2013-08-29 16:02:00,
2013-08-29 10:07:00,59.5,47.7,29.97,WSW,252,2.0,7.0,65,0.00,,BKN001,0.00,VWS V14.00,2013-08-29 16:07:00,
2013-08-29 10:12:00,60.1,49.1,29.96,SSW,212,8.0,8.0,67,0.00,,BKN001,0.00,VWS V14.00,2013-08-29 16:12:00,
2013-08-29 10:17:00,60.3,48.1,29.96,SSW,207,4.0,9.0,64,0.00,,BKN001,0.00,VWS V14.00,2013-08-29 16:17:00,
2013-08-29 10:22:00,61.1,48.4,29.95,SW,221,2.0,9.0,63,0.00,,BKN001,0.00,VWS V14.00,2013-08-29 16:22:00,
2013-08-29 10:27:00,61.6,47.6,29.95,South,188,0.0,9.0,60,0.00,,BKN001,0.00,VWS V14.00,2013-08-29 16:27:00,
2013-08-29 10:32:00,62.1,47.2,29.95,SW,217,2.0,5.0,58,0.00,,BKN001,0.00,VWS V14.00,2013-08-29 16:32:00,
2013-08-29 10:37:00,62.6,49.0,29.95,WSW,238,1.0,5.0,61,0.00,,BKN001,0.00,VWS V14.00,2013-08-29 16:37:00,
2013-08-29 10:42:00,63.4,47.9,29.95,SSW,205,0.0,5.0,57,0.00,,BKN001,0.00,VWS V14.00,2013-08-29 16:42:00,
2013-08-29 10:47:00,63.8,49.2,29.94,West,273,1.0,5.0,59,0.00,,BKN001,0.00,VWS V14.00,2013-08-29 16:47:00,
2013-08-29 10:52:00,64.1,50.0,29.94,NW,314,1.0,5.0,60,0.00,,BKN001,0.00,VWS V14.00,2013-08-29 16:52:00,
2013-08-29 10:57:00,64.7,49.1,29.94,SSW,198,2.0,5.0,57,0.00,,BKN001,0.00,VWS V14.00,2013-08-29 16:57:00,
2013-08-29 11:02:00,65.7,49.6,29.93,WSW,237,1.0,2.0,56,0.00,,BKN001,0.00,VWS V14.00,2013-08-29 17:02:00,
2013-08-29 11:07:00,65.9,49.8,29.93,NW,305,2.0,3.0,56,0.00,,BKN001,0.00,VWS V14.00,2013-08-29 17:07:00,
2013-08-29 11:12:00,66.2,50.1,29.93,West,277,0.0,3.0,56,0.00,,BKN001,0.00,VWS V14.00,2013-08-29 17:12:00,
2013-08-29 11:17:00,67.2,50.0,29.92,SSW,204,0.0,3.0,54,0.00,,BKN001,0.00,VWS V14.00,2013-08-29 17:17:00,
2013-08-29 11:22:00,67.5,49.3,29.92,SW,218,2.0,3.0,52,0.00,,BKN001,0.00,VWS V14.00,2013-08-29 17:22:00,
2013-08-29 11:27:00,67.1,50.9,29.91,SW,221,1.0,3.0,56,0.00,,BKN001,0.00,VWS V14.00,2013-08-29 17:27:00,
2013-08-29 11:31:00,67.8,49.0,29.91,West,259,2.0,3.0,51,0.00,,BKN001,0.00,VWS V14.00,2013-08-29 17:31:00,
2013-08-29 11:36:00,68.1,49.3,29.91,SSW,210,1.0,3.0,51,0.00,,BKN001,0.00,VWS V14.00,2013-08-29 17:36:00,
2013-08-29 11:41:00,69.0,49.6,29.90,SW,221,1.0,3.0,50,0.00,,BKN001,0.00,VWS V14.00,2013-08-29 17:41:00,
2013-08-29 11:47:00,69.6,49.6,29.90,SW,223,3.0,3.0,49,0.00,,BKN001,0.00,VWS V14.00,2013-08-29 17:47:00,
2013-08-29 11:52:00,70.0,49.4,29.90,West,270,3.0,4.0,48,0.00,,BKN001,0.00,VWS V14.00,2013-08-29 17:52:00,
2013-08-29 11:57:00,69.9,48.8,29.90,SE,141,2.0,4.0,47,0.00,,BKN001,0.00,VWS V14.00,2013-08-29 17:57:00,
2013-08-29 12:01:00,70.8,48.4,29.89,WNW,296,2.0,4.0,45,0.00,,BKN001,0.00,VWS V14.00,2013-08-29 18:01:00,
2013-08-29 12:06:00,71.4,50.7,29.89,WNW,283,1.0,4.0,48,0.00,,BKN001,0.00,VWS V14.00,2013-08-29 18:06:00,
2013-08-29 12:11:00,72.5,49.4,29.88,NE,50,0.0,4.0,44,0.00,,BKN001,0.00,VWS V14.00,2013-08-29 18:11:00,
2013-08-29 12:16:00,72.8,49.0,29.88,WSW,250,1.0,7.0,43,0.00,,BKN001,0.00,VWS V14.00,2013-08-29 18:16:00,
2013-08-29 12:21:00,73.5,51.5,29.87,ENE,61,1.0,7.0,46,0.00,,BKN001,0.00,VWS V14.00,2013-08-29 18:21:00,
2013-08-29 12:26:00,73.6,45.8,29.87,ENE,67,2.0,7.0,37,0.00,,BKN001,0.00,VWS V14.00,2013-08-29 18:26:00,
2013-08-29 12:31:00,73.6,42.8,29.87,ENE,63,0.0,4.0,33,0.00,,BKN001,0.00,VWS V14.00,2013-08-29 18:31:00,
2013-08-29 12:36:00,74.3,44.1,29.87,South,169,1.0,4.0,34,0.00,,BKN001,0.00,VWS V14.00,2013-08-29 18:36:00,
2013-08-29 12:41:00,75.6,44.5,29.87,NNW,341,1.0,4.0,33,0.00,,BKN001,0.00,VWS V14.00,2013-08-29 18:41:00,
2013-08-29 12:46:00,76.1,44.1,29.86,NNE,13,2.0,4.0,32,0.00,,BKN001,0.00,VWS V14.00,2013-08-29 18:46:00,
2013-08-29 12:51:00,76.6,43.7,29.86,NNE,30,0.0,4.0,31,0.00,,BKN001,0.00,VWS V14.00,2013-08-29 18:51:00,
2013-08-29 12:56:00,77.0,44.1,29.86,NNW,333,6.0,6.0,31,0.00,,BKN001,0.00,VWS V14.00,2013-08-29 18:56:00,
2013-08-29 13:01:00,76.8,40.3,29.86,NNW,339,6.0,6.0,27,0.00,,BKN001,0.00,VWS V14.00,2013-08-29 19:01:00,
2013-08-29 13:06:00,77.7,37.0,29.86,SSW,204,3.0,6.0,23,0.00,,BKN001,0.00,VWS V14.00,2013-08-29 19:06:00,
2013-08-29 13:11:00,78.3,34.0,29.86,SE,139,2.0,6.0,20,0.00,,BKN001,0.00,VWS V14.00,2013-08-29 19:11:00,
2013-08-29 13:16:00,77.7,40.1,29.86,SSE,167,5.0,8.0,26,0.00,,BKN001,0.00,VWS V14.00,2013-08-29 19:16:00,
2013-08-29 13:21:00,76.7,43.0,29.86,South,180,5.0,8.0,30,0.00,,BKN001,0.00,VWS V14.00,2013-08-29 19:21:00,
2013-08-29 13:26:00,76.8,47.1,29.86,SSE,150,8.0,8.0,35,0.00,,BKN001,0.00,VWS V14.00,2013-08-29 19:26:00,
2013-08-29 13:31:00,76.0,44.0,29.86,SSW,201,8.0,9.0,32,0.00,,BKN001,0.00,VWS V14.00,2013-08-29 19:31:00,
2013-08-29 13:36:00,75.1,46.3,29.86,South,191,5.0,9.0,36,0.00,,BKN001,0.00,VWS V14.00,2013-08-29 19:36:00,
2013-08-29 13:41:00,75.5,43.6,29.86,South,191,6.0,9.0,32,0.00,,BKN001,0.00,VWS V14.00,2013-08-29 19:41:00,
2013-08-29 13:46:00,75.5,50.2,29.87,SSE,148,10.0,10.0,41,0.00,,BKN001,0.00,VWS V14.00,2013-08-29 19:46:00,
2013-08-29 13:51:00,74.6,48.0,29.87,SSE,165,8.0,15.0,39,0.00,,BKN001,0.00,VWS V14.00,2013-08-29 19:51:00,
2013-08-29 13:56:00,72.9,48.5,29.87,SSE,160,8.0,15.0,42,0.00,,BKN001,0.00,VWS V14.00,2013-08-29 19:56:00,
2013-08-29 14:01:00,72.2,49.7,29.88,SSE,158,10.0,14.0,45,0.00,,BKN001,0.00,VWS V14.00,2013-08-29 20:01:00,
2013-08-29 14:06:00,71.7,49.2,29.88,SSE,165,11.0,15.0,45,0.00,,BKN001,0.00,VWS V14.00,2013-08-29 20:06:00,
2013-08-29 14:11:00,71.7,48.0,29.88,SSE,156,9.0,15.0,43,0.00,,BKN001,0.00,VWS V14.00,2013-08-29 20:11:00,
2013-08-29 14:16:00,71.8,48.7,29.88,SSE,156,6.0,15.0,44,0.00,,BKN001,0.00,VWS V14.00,2013-08-29 20:16:00,
2013-08-29 14:21:00,71.6,46.7,29.88,SSW,193,6.0,15.0,41,0.00,,BKN001,0.00,VWS V14.00,2013-08-29 20:21:00,
2013-08-29 14:26:00,71.4,47.1,29.88,SSW,208,7.0,15.0,42,0.00,,BKN001,0.00,VWS V14.00,2013-08-29 20:26:00,
2013-08-29 14:31:00,71.4,48.4,29.88,SSW,198,8.0,9.0,44,0.00,,BKN001,0.00,VWS V14.00,2013-08-29 20:31:00,
2013-08-29 14:36:00,71.2,47.6,29.88,SW,221,8.0,10.0,43,0.00,,BKN001,0.00,VWS V14.00,2013-08-29 20:36:00,
2013-08-29 14:41:00,71.3,47.0,29.88,SW,221,9.0,10.0,42,0.00,,BKN001,0.00,VWS V14.00,2013-08-29 20:41:00,
2013-08-29 14:46:00,71.7,48.0,29.88,SSE,150,7.0,10.0,43,0.00,,BKN001,0.00,VWS V14.00,2013-08-29 20:46:00,
2013-08-29 14:51:00,71.8,46.9,29.88,SSE,167,5.0,10.0,41,0.00,,BKN001,0.00,VWS V14.00,2013-08-29 20:51:00,
2013-08-29 14:56:00,72.0,47.7,29.87,South,186,6.0,10.0,42,0.00,,BKN001,0.00,VWS V14.00,2013-08-29 20:56:00,
2013-08-29 15:01:00,71.8,46.9,29.87,SSE,167,8.0,12.0,41,0.00,,BKN001,0.00,VWS V14.00,2013-08-29 21:01:00,
2013-08-29 15:06:00,71.4,47.8,29.87,SSW,199,6.0,12.0,43,0.00,,BKN001,0.00,VWS V14.00,2013-08-29 21:06:00,
2013-08-29 15:11:00,71.2,47.0,29.87,SW,215,5.0,12.0,42,0.00,,BKN001,0.00,VWS V14.00,2013-08-29 21:11:00,
2013-08-29 15:16:00,70.8,48.4,29.87,SSW,210,10.0,12.0,45,0.00,,BKN001,0.00,VWS V14.00,2013-08-29 21:16:00,
2013-08-29 15:21:00,70.1,49.0,29.87,SSW,212,9.0,13.0,47,0.00,,BKN001,0.00,VWS V14.00,2013-08-29 21:21:00,
2013-08-29 15:26:00,69.4,47.7,29.87,WSW,238,8.0,16.0,46,0.00,,BKN001,0.00,VWS V14.00,2013-08-29 21:26:00,
2013-08-29 15:31:00,69.1,48.0,29.88,SW,214,8.0,11.0,47,0.00,,BKN001,0.00,VWS V14.00,2013-08-29 21:31:00,
2013-08-29 15:36:00,68.8,47.2,29.88,SW,235,8.0,11.0,46,0.00,,BKN001,0.00,VWS V14.00,2013-08-29 21:36:00,
2013-08-29 15:41:00,68.6,46.4,29.88,SSW,210,9.0,11.0,45,0.00,,BKN001,0.00,VWS V14.00,2013-08-29 21:41:00,
2013-08-29 15:46:00,68.5,44.5,29.88,SSW,207,7.0,11.0,42,0.00,,BKN001,0.00,VWS V14.00,2013-08-29 21:46:00,
2013-08-29 15:51:00,68.6,45.8,29.88,WSW,238,9.0,11.0,44,0.00,,BKN001,0.00,VWS V14.00,2013-08-29 21:51:00,
2013-08-29 15:56:00,68.6,45.2,29.88,SW,231,8.0,11.0,43,0.00,,BKN001,0.00,VWS V14.00,2013-08-29 21:56:00,
2013-08-29 16:01:00,68.6,45.2,29.89,South,174,5.0,10.0,43,0.00,,BKN001,0.00,VWS V14.00,2013-08-29 22:01:00,
2013-08-29 16:06:00,68.4,45.0,29.89,South,169,5.0,10.0,43,0.00,,BKN001,0.00,VWS V14.00,2013-08-29 22:06:00,
2013-08-29 16:11:00,68.3,45.0,29.89,SE,134,5.0,10.0,43,0.00,,BKN001,0.00,VWS V14.00,2013-08-29 22:11:00,
2013-08-29 16:16:00,68.3,45.0,29.89,SSE,149,5.0,10.0,43,0.00,,BKN001,0.00,VWS V14.00,2013-08-29 22:16:00,
2013-08-29 16:21:00,68.6,45.2,29.89,South,183,7.0,10.0,43,0.00,,BKN001,0.00,VWS V14.00,2013-08-29 22:21:00,
2013-08-29 16:26:00,69.0,45.0,29.89,South,175,6.0,11.0,42,0.00,,BKN001,0.00,VWS V14.00,2013-08-29 22:26:00,
2013-08-29 16:31:00,69.3,45.2,29.88,SSE,157,4.0,9.0,42,0.00,,BKN001,0.00,VWS V14.00,2013-08-29 22:31:00,
2013-08-29 16:36:00,69.5,44.8,29.88,South,175,4.0,9.0,41,0.00,,BKN001,0.00,VWS V14.00,2013-08-29 22:36:00,
2013-08-29 16:41:00,69.8,45.1,29.88,SSW,207,5.0,9.0,41,0.00,,BKN001,0.00,VWS V14.00,2013-08-29 22:41:00,
2013-08-29 16:46:00,69.8,45.7,29.88,South,179,3.0,9.0,42,0.00,,BKN001,0.00,VWS V14.00,2013-08-29 22:46:00,
2013-08-29 16:51:00,69.8,45.7,29.89,SSW,212,4.0,9.0,42,0.00,,BKN001,0.00,VWS V14.00,2013-08-29 22:51:00,
2013-08-29 16:56:00,69.8,45.1,29.88,South,183,3.0,9.0,41,0.00,,BKN001,0.00,VWS V14.00,2013-08-29 22:56:00,
2013-08-29 17:01:00,69.7,44.3,29.89,West,277,4.0,6.0,40,0.00,,BKN001,0.00,VWS V14.00,2013-08-29 23:01:00,
2013-08-29 17:06:00,69.3,47.1,29.89,West,263,4.0,9.0,45,0.00,,BKN001,0.00,VWS V14.00,2013-08-29 23:06:00,
2013-08-29 17:11:00,69.8,48.1,29.88,WNW,297,4.0,9.0,46,0.00,,BKN001,0.00,VWS V14.00,2013-08-29 23:11:00,
2013-08-29 17:16:00,71.0,47.4,29.88,SE,131,3.0,9.0,43,0.00,,BKN001,0.00,VWS V14.00,2013-08-29 23:16:00,
2013-08-29 17:21:00,72.8,42.0,29.88,ESE,115,3.0,9.0,33,0.00,,BKN001,0.00,VWS V14.00,2013-08-29 23:21:00,
2013-08-29 17:26:00,73.9,43.8,29.88,SW,219,6.0,9.0,34,0.00,,BKN001,0.00,VWS V14.00,2013-08-29 23:26:00,
2013-08-29 17:31:00,73.7,46.5,29.88,WSW,249,2.0,5.0,38,0.00,,BKN001,0.00,VWS V14.00,2013-08-29 23:31:00,
2013-08-29 17:36:00,72.9,45.1,29.88,WSW,246,4.0,6.0,37,0.00,,BKN001,0.00,VWS V14.00,2013-08-29 23:36:00,
2013-08-29 17:41:00,72.1,44.4,29.88,WSW,257,4.0,6.0,37,0.00,,BKN001,0.00,VWS V14.00,2013-08-29 23:41:00,
2013-08-29 17:46:00,71.6,45.4,29.88,WNW,288,4.0,6.0,39,0.00,,BKN001,0.00,VWS V14.00,2013-08-29 23:46:00,
2013-08-29 17:51:00,70.9,47.3,29.88,WNW,296,1.0,6.0,43,0.00,,BKN001,0.00,VWS V14.00,2013-08-29 23:51:00,
2013-08-29 17:56:00,70.5,46.3,29.88,NW,306,2.0,6.0,42,0.00,,BKN001,0.00,VWS V14.00,2013-08-29 23:56:00,
2013-08-29 18:01:00,70.4,47.5,29.88,West,274,0.0,1.0,44,0.00,,BKN001,0.00,VWS V14.00,2013-08-30 00:01:00,
2013-08-29 18:06:00,70.6,45.8,29.89,West,274,0.0,1.0,41,0.00,,BKN001,0.00,VWS V14.00,2013-08-30 00:06:00,
2013-08-29 18:11:00,70.5,44.4,29.89,SW,217,0.0,2.0,39,0.00,,BKN001,0.00,VWS V14.00,2013-08-30 00:11:00,
2013-08-29 18:16:00,70.4,48.1,29.89,SW,217,0.0,2.0,45,0.00,,BKN001,0.00,VWS V14.00,2013-08-30 00:16:00,
2013-08-29 18:21:00,70.3,45.5,29.89,SW,217,0.0,2.0,41,0.00,,BKN001,0.00,VWS V14.00,2013-08-30 00:21:00,
2013-08-29 18:26:00,69.9,48.8,29.88,SE,129,0.0,2.0,47,0.00,,BKN001,0.00,VWS V14.00,2013-08-30 00:26:00,
2013-08-29 18:31:00,69.5,45.4,29.88,SE,129,0.0,0.0,42,0.00,,BKN001,0.00,VWS V14.00,2013-08-30 00:31:00,
2013-08-29 18:36:00,69.5,46.7,29.88,SE,129,0.0,0.0,44,0.00,,BKN001,0.00,VWS V14.00,2013-08-30 00:36:00,
2013-08-29 18:41:00,69.5,52.2,29.88,ESE,106,0.0,0.0,54,0.00,,BKN001,0.00,VWS V14.00,2013-08-30 00:41:00,
2013-08-29 18:46:00,68.6,50.3,29.88,ENE,78,3.0,3.0,52,0.00,,BKN001,0.00,VWS V14.00,2013-08-30 00:46:00,
2013-08-29 18:51:00,67.7,51.0,29.88,East,94,3.0,4.0,55,0.00,,BKN001,0.00,VWS V14.00,2013-08-30 00:51:00,
2013-08-29 18:56:00,67.0,50.3,29.87,East,84,3.0,4.0,55,0.00,,BKN001,0.00,VWS V14.00,2013-08-30 00:56:00,
2013-08-29 19:01:00,66.7,49.5,29.87,East,100,2.0,3.0,54,0.00,,BKN001,0.00,VWS V14.00,2013-08-30 01:01:00,
2013-08-29 19:06:00,66.0,50.8,29.87,East,99,2.0,3.0,58,0.00,,BKN001,0.00,VWS V14.00,2013-08-30 01:06:00,
2013-08-29 19:11:00,65.5,52.6,29.87,East,98,0.0,3.0,63,0.00,,BKN001,0.00,VWS V14.00,2013-08-30 01:11:00,
2013-08-29 19:16:00,65.2,51.4,29.87,SSE,151,0.0,3.0,61,0.00,,BKN001,0.00,VWS V14.00,2013-08-30 01:16:00,
2013-08-29 19:21:00,65.0,52.1,29.87,SE,136,0.0,3.0,63,0.00,,BKN001,0.00,VWS V14.00,2013-08-30 01:21:00,
2013-08-29 19:26:00,64.7,48.2,29.87,East,79,3.0,4.0,55,0.00,,BKN001,0.00,VWS V14.00,2013-08-30 01:26:00,
2013-08-29 19:31:00,64.5,47.5,29.88,ENE,75,2.0,4.0,54,0.00,,BKN001,0.00,VWS V14.00,2013-08-30 01:31:00,
2013-08-29 19:36:00,64.0,47.5,29.88,ENE,72,5.0,5.0,55,0.00,,BKN001,0.00,VWS V14.00,2013-08-30 01:36:00,
2013-08-29 19:41:00,63.3,47.3,29.88,East,90,4.0,6.0,56,0.00,,BKN001,0.00,VWS V14.00,2013-08-30 01:41:00,
2013-08-29 19:46:00,62.6,46.7,29.88,ESE,112,4.0,6.0,56,0.00,,BKN001,0.00,VWS V14.00,2013-08-30 01:46:00,
2013-08-29 19:51:00,62.3,48.2,29.89,ESE,110,2.0,6.0,60,0.00,,BKN001,0.00,VWS V14.00,2013-08-30 01:51:00,
2013-08-29 19:56:00,61.3,49.0,29.89,SE,142,2.0,6.0,64,0.00,,BKN001,0.00,VWS V14.00,2013-08-30 01:56:00,
2013-08-29 20:01:00,60.5,47.4,29.89,SE,124,2.0,3.0,62,0.00,,BKN001,0.00,VWS V14.00,2013-08-30 02:01:00,
2013-08-29 20:06:00,60.3,49.3,29.90,SSE,160,2.0,3.0,67,0.00,,BKN001,0.00,VWS V14.00,2013-08-30 02:06:00,
2013-08-29 20:11:00,59.9,49.3,29.90,SSE,165,1.0,4.0,68,0.00,,BKN001,0.00,VWS V14.00,2013-08-30 02:11:00,
2013-08-29 20:16:00,59.5,50.5,29.90,SW,235,2.0,4.0,72,0.00,,BKN001,0.00,VWS V14.00,2013-08-30 02:16:00,
2013-08-29 20:21:00,59.4,50.0,29.91,SSW,207,0.0,4.0,71,0.00,,BKN001,0.00,VWS V14.00,2013-08-30 02:21:00,
2013-08-29 20:26:00,59.0,49.6,29.91,SE,140,3.0,5.0,71,0.00,,BKN001,0.00,VWS V14.00,2013-08-30 02:26:00,
2013-08-29 20:31:00,58.7,49.7,29.92,SE,134,2.0,3.0,72,0.00,,BKN001,0.00,VWS V14.00,2013-08-30 02:31:00,
2013-08-29 20:36:00,58.6,48.1,29.92,SE,139,2.0,3.0,68,0.00,,BKN001,0.00,VWS V14.00,2013-08-30 02:36:00,
2013-08-29 20:41:00,58.6,48.1,29.92,SSE,156,0.0,3.0,68,0.00,,BKN001,0.00,VWS V14.00,2013-08-30 02:41:00,
2013-08-29 20:46:00,57.9,47.8,29.93,SSE,155,1.0,3.0,69,0.00,,BKN001,0.00,VWS V14.00,2013-08-30 02:46:00,
2013-08-29 20:51:00,57.6,47.1,29.93,South,188,2.0,4.0,68,0.00,,BKN001,0.00,VWS V14.00,2013-08-30 02:51:00,
2013-08-29 20:56:00,57.2,47.5,29.93,SW,218,2.0,4.0,70,0.00,,BKN001,0.00,VWS V14.00,2013-08-30 02:56:00,
2013-08-29 21:01:00,56.9,46.8,29.94,SSE,166,2.0,5.0,69,0.00,,BKN001,0.00,VWS V14.00,2013-08-30 03:01:00,
2013-08-29 21:06:00,57.2,47.1,29.94,SE,132,1.0,5.0,69,0.00,,BKN001,0.00,VWS V14.00,2013-08-30 03:06:00,
2013-08-29 21:11:00,56.9,46.8,29.95,ESE,108,2.0,5.0,69,0.00,,BKN001,0.00,VWS V14.00,2013-08-30 03:11:00,
2013-08-29 21:16:00,56.4,47.1,29.95,East,82,3.0,5.0,71,0.00,,BKN001,0.00,VWS V14.00,2013-08-30 03:16:00,
2013-08-29 21:21:00,57.2,46.8,29.95,East,99,3.0,5.0,68,0.00,,BKN001,0.00,VWS V14.00,2013-08-30 03:21:00,
2013-08-29 21:26:00,57.6,46.3,29.96,East,101,3.0,5.0,66,0.00,,BKN001,0.00,VWS V14.00,2013-08-30 03:26:00,
2013-08-29 21:31:00,56.7,46.7,29.96,SE,125,2.0,3.0,69,0.00,,BKN001,0.00,VWS V14.00,2013-08-30 03:31:00,
2013-08-29 21:36:00,55.8,46.5,29.96,West,279,0.0,3.0,71,0.00,,BKN001,0.00,VWS V14.00,2013-08-30 03:36:00,
2013-08-29 21:41:00,55.8,46.2,29.96,SE,136,3.0,3.0,70,0.00,,BKN001,0.00,VWS V14.00,2013-08-30 03:41:00,
2013-08-29 21:46:00,56.8,46.0,29.96,SE,134,2.0,4.0,67,0.00,,BKN001,0.00,VWS V14.00,2013-08-30 03:46:00,
2013-08-29 21:51:00,56.7,46.7,29.96,ESE,123,0.0,4.0,69,0.00,,BKN001,0.00,VWS V14.00,2013-08-30 03:51:00,
2013-08-29 21:56:00,56.1,47.2,29.96,ESE,123,0.0,4.0,72,0.00,,BKN001,0.00,VWS V14.00,2013-08-30 03:56:00,
2013-08-29 22:01:00,55.8,47.3,29.96,ESE,122,0.0,0.0,73,0.00,,BKN001,0.00,VWS V14.00,2013-08-30 04:01:00,
2013-08-29 22:06:00,55.6,46.7,29.97,East,97,0.0,2.0,72,0.00,,BKN001,0.00,VWS V14.00,2013-08-30 04:06:00,
2013-08-29 22:11:00,55.7,46.8,29.97,East,97,0.0,2.0,72,0.00,,BKN001,0.00,VWS V14.00,2013-08-30 04:11:00,
2013-08-29 22:16:00,55.8,46.5,29.97,East,97,0.0,2.0,71,0.00,,BKN001,0.00,VWS V14.00,2013-08-30 04:16:00,
2013-08-29 22:21:00,56.1,46.5,29.98,ESE,111,0.0,2.0,70,0.00,,BKN001,0.00,VWS V14.00,2013-08-30 04:21:00,
2013-08-29 22:26:00,56.2,46.6,29.98,ESE,112,0.0,2.0,70,0.00,,BKN001,0.00,VWS V14.00,2013-08-30 04:26:00,
2013-08-29 22:31:00,56.5,48.0,29.98,WNW,283,0.0,2.0,73,0.00,,BKN001,0.00,VWS V14.00,2013-08-30 04:31:00,
2013-08-29 22:36:00,56.3,47.8,29.98,West,281,0.0,2.0,73,0.00,,BKN001,0.00,VWS V14.00,2013-08-30 04:36:00,
2013-08-29 22:41:00,56.1,47.6,29.98,West,281,0.0,2.0,73,0.00,,BKN001,0.00,VWS V14.00,2013-08-30 04:41:00,
2013-08-29 22:46:00,56.0,47.8,29.98,West,281,1.0,2.0,74,0.00,,BKN001,0.00,VWS V14.00,2013-08-30 04:46:00,
2013-08-29 22:51:00,55.9,47.7,29.98,SE,130,1.0,2.0,74,0.00,,BKN001,0.00,VWS V14.00,2013-08-30 04:51:00,
2013-08-29 22:56:00,56.0,47.5,29.98,ESE,117,1.0,2.0,73,0.00,,BKN001,0.00,VWS V14.00,2013-08-30 04:56:00,
2013-08-29 23:01:00,55.8,47.7,29.99,ESE,120,0.0,1.0,74,0.00,,BKN001,0.00,VWS V14.00,2013-08-30 05:01:00,
2013-08-29 23:06:00,55.6,48.5,29.98,ESE,120,1.0,1.0,77,0.00,,BKN001,0.00,VWS V14.00,2013-08-30 05:06:00,
2013-08-29 23:11:00,55.4,48.0,29.98,SSE,153,2.0,2.0,76,0.00,,BKN001,0.00,VWS V14.00,2013-08-30 05:11:00,
2013-08-29 23:16:00,55.4,48.0,29.98,SSE,150,4.0,4.0,76,0.00,,BKN001,0.00,VWS V14.00,2013-08-30 05:16:00,
2013-08-29 23:21:00,55.5,48.1,29.98,SSE,157,4.0,5.0,76,0.00,,BKN001,0.00,VWS V14.00,2013-08-30 05:21:00,
2013-08-29 23:26:00,55.5,48.4,29.97,SW,226,2.0,6.0,77,0.00,,BKN001,0.00,VWS V14.00,2013-08-30 05:26:00,
2013-08-29 23:31:00,55.4,48.3,29.97,SW,232,2.0,3.0,77,0.00,,BKN001,0.00,VWS V14.00,2013-08-30 05:31:00,
2013-08-29 23:36:00,55.2,48.1,29.97,South,191,1.0,3.0,77,0.00,,BKN001,0.00,VWS V14.00,2013-08-30 05:36:00,
2013-08-29 23:41:00,55.1,48.0,29.98,SW,235,4.0,7.0,77,0.00,,BKN001,0.00,VWS V14.00,2013-08-30 05:41:00,
2013-08-29 23:46:00,54.7,48.7,29.98,WSW,250,3.0,7.0,80,0.00,,BKN001,0.00,VWS V14.00,2013-08-30 05:46:00,
2013-08-29 23:51:00,54.6,48.2,29.98,SSW,212,2.0,7.0,79,0.00,,BKN001,0.00,VWS V14.00,2013-08-30 05:51:00,
2013-08-29 23:56:00,54.7,48.3,29.98,SE,136,3.0,7.0,79,0.00,,BKN001,0.00,VWS V14.00,2013-08-30 05:56:00,